PWSweather.com
Personal Weather Stations
Station Observations
J24K28P63
Vysocina, PocatkyCZ 39464

VysocinaPocatkyCZ 39464

Lat: 49.2594238, Lon: 15.2331769

Elevation: 2011

Station Type: Vantage Pro2+

http://meteo-jirkalina.com

Latest ConditionsUpdated 4:20:06 PM GMT+01:01 Friday, Sep 22, 2017
Currently Today's Max Today's Min Today's Average
Temperature 61.1°F16.2°C 67.9°F19.9°C 44.6°F7.0°C 54.8°F12.7°C
Dew Point 52.0°F11.1°C 55.1°F12.8°C 43.6°F6.4°C 50.2°F10.1°C
Winds Calm Calm 7.0 mph W11.3 kmh W - 1.5 mph 2.4 kmh
Wind Gusts 2.0 mph3.2 kmh 12.0 mph19.3 kmh - -
Humidity 72% 100% 58% 86%
Pressure 30.14 in1020.7 mb 30.15 in1021.0 mb 30.09 in1019.0 mb -
Precipitation - 0.01 in0.3 mm - -
Hour Temp Dew Point Humidity Winds Wind Gusts Pressure Precip Precip Rate Daily Precip Total
04:20 PM 61.1°F16.2°C 52.0°F11.1°C 72% Calm Calm 2.0 mph3.2 kmh 30.14 in1020.7 mb - 0.00 in0.0 mm 0.01 in0.3 mm
04:10 PM 61.6°F16.4°C 52.1°F11.2°C 71% Calm Calm 2.0 mph3.2 kmh 30.14 in1020.7 mb - 0.00 in0.0 mm 0.01 in0.3 mm
04:00 PM 62.3°F16.8°C 52.4°F11.3°C 70% 2.0 mph NW3.2 kmh NW 3.0 mph4.8 kmh 30.14 in1020.7 mb - 0.00 in0.0 mm 0.01 in0.3 mm
03:50 PM 62.7°F17.1°C 51.5°F10.8°C 67% 3.0 mph NW4.8 kmh NW 3.0 mph4.8 kmh 30.14 in1020.7 mb - 0.00 in0.0 mm 0.01 in0.3 mm
03:40 PM 63.3°F17.4°C 52.1°F11.2°C 67% 1.0 mph NW1.6 kmh NW 3.0 mph4.8 kmh 30.14 in1020.7 mb - 0.00 in0.0 mm 0.01 in0.3 mm
03:30 PM 63.0°F17.2°C 51.9°F11.1°C 67% 1.0 mph WNW1.6 kmh WNW 1.0 mph1.6 kmh 30.14 in1020.7 mb - 0.00 in0.0 mm 0.01 in0.3 mm
03:20 PM 63.1°F17.3°C 50.7°F10.4°C 64% 2.0 mph NW3.2 kmh NW 3.0 mph4.8 kmh 30.14 in1020.7 mb - 0.00 in0.0 mm 0.01 in0.3 mm
03:10 PM 63.5°F17.5°C 51.1°F10.6°C 64% 2.0 mph WNW3.2 kmh WNW 5.0 mph8.0 kmh 30.14 in1020.7 mb - 0.00 in0.0 mm 0.01 in0.3 mm
03:00 PM 63.9°F17.7°C 50.6°F10.3°C 62% 2.0 mph NW3.2 kmh NW 5.0 mph8.0 kmh 30.13 in1020.3 mb - 0.00 in0.0 mm 0.01 in0.3 mm
02:50 PM 63.7°F17.6°C 52.2°F11.2°C 66% 3.0 mph W4.8 kmh W 6.0 mph9.7 kmh 30.13 in1020.3 mb - 0.00 in0.0 mm 0.01 in0.3 mm
02:40 PM 63.0°F17.2°C 50.7°F10.4°C 64% 3.0 mph W4.8 kmh W 3.0 mph4.8 kmh 30.13 in1020.3 mb - 0.00 in0.0 mm 0.01 in0.3 mm
02:30 PM 62.9°F17.2°C 51.8°F11.0°C 67% 3.0 mph W4.8 kmh W 7.0 mph11.3 kmh 30.13 in1020.3 mb - 0.00 in0.0 mm 0.01 in0.3 mm
02:20 PM 63.3°F17.4°C 50.9°F10.5°C 64% Calm Calm 1.0 mph1.6 kmh 30.13 in1020.3 mb - 0.00 in0.0 mm 0.01 in0.3 mm
02:10 PM 64.2°F17.9°C 50.9°F10.5°C 62% 2.0 mph W3.2 kmh W 3.0 mph4.8 kmh 30.13 in1020.3 mb - 0.00 in0.0 mm 0.01 in0.3 mm
02:00 PM 65.3°F18.5°C 51.5°F10.8°C 61% 3.0 mph W4.8 kmh W 6.0 mph9.7 kmh 30.13 in1020.3 mb - 0.00 in0.0 mm 0.01 in0.3 mm
01:50 PM 66.8°F19.3°C 51.6°F10.9°C 58% 1.0 mph WSW1.6 kmh WSW 3.0 mph4.8 kmh 30.13 in1020.3 mb - 0.00 in0.0 mm 0.01 in0.3 mm
01:40 PM 67.9°F19.9°C 53.5°F11.9°C 60% 7.0 mph W11.3 kmh W 12.0 mph19.3 kmh 30.13 in1020.3 mb - 0.00 in0.0 mm 0.01 in0.3 mm
01:30 PM 66.7°F19.3°C 52.4°F11.3°C 60% 3.0 mph SW4.8 kmh SW 5.0 mph8.0 kmh 30.13 in1020.3 mb - 0.00 in0.0 mm 0.01 in0.3 mm
01:20 PM 65.8°F18.8°C 52.8°F11.6°C 63% 6.0 mph W9.7 kmh W 9.0 mph14.5 kmh 30.13 in1020.3 mb - 0.00 in0.0 mm 0.01 in0.3 mm
01:10 PM 64.5°F18.1°C 51.2°F10.7°C 62% 3.0 mph WSW4.8 kmh WSW 6.0 mph9.7 kmh 30.13 in1020.3 mb - 0.00 in0.0 mm 0.01 in0.3 mm
01:00 PM 65.8°F18.8°C 53.3°F11.8°C 64% 5.0 mph WSW8.0 kmh WSW 8.0 mph12.9 kmh 30.13 in1020.3 mb - 0.00 in0.0 mm 0.01 in0.3 mm
12:50 PM 66.0°F18.9°C 53.4°F11.9°C 64% 5.0 mph WSW8.0 kmh WSW 9.0 mph14.5 kmh 30.14 in1020.7 mb - 0.00 in0.0 mm 0.01 in0.3 mm
12:40 PM 63.8°F17.7°C 52.2°F11.2°C 66% 5.0 mph WSW8.0 kmh WSW 8.0 mph12.9 kmh 30.14 in1020.7 mb - 0.00 in0.0 mm 0.01 in0.3 mm
12:30 PM 63.7°F17.6°C 53.3°F11.8°C 69% 6.0 mph W9.7 kmh W 7.0 mph11.3 kmh 30.14 in1020.7 mb - 0.00 in0.0 mm 0.01 in0.3 mm
12:20 PM 63.3°F17.4°C 52.6°F11.4°C 68% 3.0 mph WSW4.8 kmh WSW 3.0 mph4.8 kmh 30.14 in1020.7 mb - 0.00 in0.0 mm 0.01 in0.3 mm
12:10 PM 63.7°F17.6°C 53.0°F11.7°C 68% 6.0 mph W9.7 kmh W 9.0 mph14.5 kmh 30.14 in1020.7 mb - 0.00 in0.0 mm 0.01 in0.3 mm
12:00 PM 65.1°F18.4°C 53.0°F11.7°C 65% 3.0 mph SW4.8 kmh SW 9.0 mph14.5 kmh 30.14 in1020.7 mb - 0.00 in0.0 mm 0.01 in0.3 mm
11:50 AM 66.3°F19.1°C 53.8°F12.1°C 64% 3.0 mph SW4.8 kmh SW 6.0 mph9.7 kmh 30.14 in1020.7 mb - 0.00 in0.0 mm 0.01 in0.3 mm
11:40 AM 64.6°F18.1°C 54.2°F12.3°C 69% 5.0 mph W8.0 kmh W 8.0 mph12.9 kmh 30.14 in1020.7 mb - 0.00 in0.0 mm 0.01 in0.3 mm
11:30 AM 63.8°F17.7°C 53.8°F12.1°C 70% 5.0 mph W8.0 kmh W 8.0 mph12.9 kmh 30.14 in1020.7 mb - 0.00 in0.0 mm 0.01 in0.3 mm
11:20 AM 64.7°F18.2°C 55.1°F12.8°C 71% 2.0 mph WSW3.2 kmh WSW 3.0 mph4.8 kmh 30.15 in1021.0 mb - 0.00 in0.0 mm 0.01 in0.3 mm
11:10 AM 62.9°F17.2°C 53.7°F12.1°C 72% 5.0 mph W8.0 kmh W 6.0 mph9.7 kmh 30.15 in1021.0 mb - 0.00 in0.0 mm 0.01 in0.3 mm
11:00 AM 62.0°F16.7°C 54.3°F12.4°C 76% 6.0 mph W9.7 kmh W 7.0 mph11.3 kmh 30.15 in1021.0 mb - 0.00 in0.0 mm 0.01 in0.3 mm
10:50 AM 61.3°F16.3°C 54.0°F12.2°C 77% 6.0 mph W9.7 kmh W 6.0 mph9.7 kmh 30.15 in1021.0 mb - 0.00 in0.0 mm 0.01 in0.3 mm
10:40 AM 61.2°F16.2°C 54.6°F12.6°C 79% 5.0 mph W8.0 kmh W 7.0 mph11.3 kmh 30.15 in1021.0 mb - 0.00 in0.0 mm 0.01 in0.3 mm
10:30 AM 60.3°F15.7°C 54.1°F12.3°C 80% 5.0 mph NW8.0 kmh NW 8.0 mph12.9 kmh 30.15 in1021.0 mb - 0.00 in0.0 mm 0.01 in0.3 mm
10:20 AM 59.6°F15.3°C 54.1°F12.3°C 82% 3.0 mph NW4.8 kmh NW 3.0 mph4.8 kmh 30.15 in1021.0 mb - 0.00 in0.0 mm 0.01 in0.3 mm
10:10 AM 59.1°F15.1°C 53.6°F12.0°C 82% 3.0 mph NW4.8 kmh NW 5.0 mph8.0 kmh 30.15 in1021.0 mb - 0.00 in0.0 mm 0.01 in0.3 mm
10:00 AM 58.5°F14.7°C 54.0°F12.2°C 85% 2.0 mph NW3.2 kmh NW 3.0 mph4.8 kmh 30.15 in1021.0 mb - 0.00 in0.0 mm 0.01 in0.3 mm
09:50 AM 57.8°F14.3°C 54.0°F12.2°C 87% 2.0 mph NW3.2 kmh NW 3.0 mph4.8 kmh 30.15 in1021.0 mb - 0.00 in0.0 mm 0.01 in0.3 mm
09:40 AM 56.7°F13.7°C 53.8°F12.1°C 90% 2.0 mph NW3.2 kmh NW 3.0 mph4.8 kmh 30.15 in1021.0 mb - 0.00 in0.0 mm 0.01 in0.3 mm
09:30 AM 56.2°F13.4°C 53.9°F12.2°C 92% 2.0 mph NW3.2 kmh NW 5.0 mph8.0 kmh 30.15 in1021.0 mb - 0.00 in0.0 mm 0.01 in0.3 mm
09:20 AM 55.8°F13.2°C 53.8°F12.1°C 93% 2.0 mph NW3.2 kmh NW 3.0 mph4.8 kmh 30.15 in1021.0 mb - 0.00 in0.0 mm 0.01 in0.3 mm
09:10 AM 55.1°F12.8°C 52.8°F11.6°C 92% 2.0 mph NW3.2 kmh NW 3.0 mph4.8 kmh 30.15 in1021.0 mb - 0.00 in0.0 mm 0.01 in0.3 mm
09:00 AM 55.2°F12.9°C 52.6°F11.4°C 91% 1.0 mph NW1.6 kmh NW 3.0 mph4.8 kmh 30.15 in1021.0 mb - 0.00 in0.0 mm 0.01 in0.3 mm
08:50 AM 55.9°F13.3°C 52.7°F11.5°C 89% 1.0 mph NW1.6 kmh NW 2.0 mph3.2 kmh 30.15 in1021.0 mb - 0.00 in0.0 mm 0.01 in0.3 mm
08:40 AM 56.3°F13.5°C 52.5°F11.4°C 87% 2.0 mph NW3.2 kmh NW 3.0 mph4.8 kmh 30.15 in1021.0 mb - 0.00 in0.0 mm 0.01 in0.3 mm
08:30 AM 56.2°F13.4°C 52.4°F11.3°C 87% 1.0 mph NW1.6 kmh NW 3.0 mph4.8 kmh 30.14 in1020.7 mb - 0.00 in0.0 mm 0.01 in0.3 mm
08:20 AM 56.2°F13.4°C 52.4°F11.3°C 87% 1.0 mph NW1.6 kmh NW 3.0 mph4.8 kmh 30.14 in1020.7 mb - 0.00 in0.0 mm 0.01 in0.3 mm
08:10 AM 55.9°F13.3°C 52.7°F11.5°C 89% Calm Calm 2.0 mph3.2 kmh 30.14 in1020.7 mb - 0.00 in0.0 mm 0.01 in0.3 mm
08:00 AM 55.6°F13.1°C 52.4°F11.3°C 89% 1.0 mph NW1.6 kmh NW 2.0 mph3.2 kmh 30.14 in1020.7 mb - 0.00 in0.0 mm 0.01 in0.3 mm
07:50 AM 55.5°F13.1°C 52.3°F11.3°C 89% Calm Calm 2.0 mph3.2 kmh 30.14 in1020.7 mb - 0.00 in0.0 mm 0.01 in0.3 mm
07:40 AM 55.1°F12.8°C 52.2°F11.2°C 90% 2.0 mph NW3.2 kmh NW 3.0 mph4.8 kmh 30.13 in1020.3 mb - 0.00 in0.0 mm 0.01 in0.3 mm
07:30 AM 54.5°F12.5°C 52.3°F11.3°C 92% 1.0 mph NW1.6 kmh NW 3.0 mph4.8 kmh 30.13 in1020.3 mb - 0.00 in0.0 mm 0.01 in0.3 mm
07:20 AM 53.7°F12.1°C 51.7°F10.9°C 93% 1.0 mph NW1.6 kmh NW 2.0 mph3.2 kmh 30.13 in1020.3 mb - 0.00 in0.0 mm 0.01 in0.3 mm
07:10 AM 52.9°F11.6°C 51.2°F10.7°C 94% Calm Calm -- 30.13 in1020.3 mb - 0.00 in0.0 mm 0.01 in0.3 mm
07:00 AM 52.1°F11.2°C 50.7°F10.4°C 95% Calm Calm 1.0 mph1.6 kmh 30.13 in1020.3 mb - 0.00 in0.0 mm 0.01 in0.3 mm
06:50 AM 51.4°F10.8°C 50.3°F10.2°C 96% Calm Calm -- 30.13 in1020.3 mb - 0.00 in0.0 mm 0.01 in0.3 mm
06:40 AM 50.6°F10.3°C 49.5°F9.7°C 96% Calm Calm -- 30.13 in1020.3 mb - 0.00 in0.0 mm 0.01 in0.3 mm
06:30 AM 50.0°F10.0°C 48.9°F9.4°C 96% Calm Calm -- 30.13 in1020.3 mb - 0.00 in0.0 mm 0.01 in0.3 mm
06:20 AM 49.7°F9.8°C 48.6°F9.2°C 96% Calm Calm 1.0 mph1.6 kmh 30.12 in1020.0 mb - 0.00 in0.0 mm 0.01 in0.3 mm
06:10 AM 49.4°F9.7°C 48.3°F9.1°C 96% Calm Calm 1.0 mph1.6 kmh 30.12 in1020.0 mb - 0.00 in0.0 mm 0.01 in0.3 mm
06:00 AM 49.2°F9.6°C 48.1°F8.9°C 96% Calm Calm -- 30.12 in1020.0 mb 0.00 in0.0 mm 0.00 in0.0 mm 0.01 in0.3 mm
05:50 AM 48.7°F9.3°C 47.6°F8.7°C 96% Calm Calm -- 30.12 in1020.0 mb 0.00 in0.0 mm 0.00 in0.0 mm 0.01 in0.3 mm
05:40 AM 48.4°F9.1°C 47.3°F8.5°C 96% Calm Calm 1.0 mph1.6 kmh 30.12 in1020.0 mb 0.00 in0.0 mm 0.00 in0.0 mm 0.01 in0.3 mm
05:30 AM 48.3°F9.1°C 47.2°F8.4°C 96% Calm Calm -- 30.12 in1020.0 mb 0.00 in0.0 mm 0.00 in0.0 mm 0.01 in0.3 mm
05:20 AM 48.6°F9.2°C 47.2°F8.4°C 95% Calm Calm -- 30.12 in1020.0 mb 0.00 in0.0 mm 0.00 in0.0 mm 0.01 in0.3 mm
05:10 AM 48.9°F9.4°C 47.5°F8.6°C 95% Calm Calm -- 30.11 in1019.6 mb 0.00 in0.0 mm 0.00 in0.0 mm 0.01 in0.3 mm
05:00 AM 49.3°F9.6°C 47.9°F8.8°C 95% Calm Calm -- 30.12 in1020.0 mb 0.00 in0.0 mm 0.00 in0.0 mm 0.01 in0.3 mm
04:50 AM 49.5°F9.7°C 47.8°F8.8°C 94% Calm Calm -- 30.12 in1020.0 mb 0.00 in0.0 mm 0.00 in0.0 mm 0.01 in0.3 mm
04:40 AM 50.0°F10.0°C 48.3°F9.1°C 94% Calm Calm -- 30.12 in1020.0 mb 0.00 in0.0 mm 0.00 in0.0 mm 0.01 in0.3 mm
04:30 AM 50.3°F10.2°C 48.6°F9.2°C 94% Calm Calm -- 30.12 in1020.0 mb 0.00 in0.0 mm 0.00 in0.0 mm 0.01 in0.3 mm
04:20 AM 50.5°F10.3°C 48.6°F9.2°C 93% Calm Calm 1.0 mph1.6 kmh 30.12 in1020.0 mb 0.00 in0.0 mm 0.00 in0.0 mm 0.01 in0.3 mm
04:10 AM 51.1°F10.6°C 49.1°F9.5°C 93% Calm Calm 1.0 mph1.6 kmh 30.12 in1020.0 mb 0.00 in0.0 mm 0.00 in0.0 mm 0.01 in0.3 mm
04:00 AM 51.3°F10.7°C 49.3°F9.6°C 93% Calm Calm -- 30.12 in1020.0 mb 0.00 in0.0 mm 0.00 in0.0 mm 0.01 in0.3 mm
03:50 AM 51.2°F10.7°C 49.2°F9.6°C 93% Calm Calm 1.0 mph1.6 kmh 30.12 in1020.0 mb 0.00 in0.0 mm 0.00 in0.0 mm 0.01 in0.3 mm
03:40 AM 51.4°F10.8°C 49.4°F9.7°C 93% Calm Calm -- 30.12 in1020.0 mb 0.00 in0.0 mm 0.00 in0.0 mm 0.01 in0.3 mm
03:30 AM 51.8°F11.0°C 49.8°F9.9°C 93% Calm Calm -- 30.12 in1020.0 mb 0.00 in0.0 mm 0.00 in0.0 mm 0.01 in0.3 mm
03:20 AM 51.9°F11.1°C 49.6°F9.8°C 92% Calm Calm -- 30.12 in1020.0 mb 0.00 in0.0 mm 0.00 in0.0 mm 0.01 in0.3 mm
03:10 AM 52.3°F11.3°C 49.7°F9.8°C 91% Calm Calm -- 30.12 in1020.0 mb 0.00 in0.0 mm 0.00 in0.0 mm 0.01 in0.3 mm
03:00 AM 52.4°F11.3°C 49.9°F9.9°C 91% Calm Calm -- 30.12 in1020.0 mb 0.00 in0.0 mm 0.00 in0.0 mm 0.01 in0.3 mm
02:50 AM 52.5°F11.4°C 49.9°F9.9°C 91% 1.0 mph NW1.6 kmh NW 2.0 mph3.2 kmh 30.12 in1020.0 mb 0.00 in0.0 mm 0.00 in0.0 mm 0.01 in0.3 mm
02:40 AM 52.5°F11.4°C 49.9°F9.9°C 91% Calm Calm 1.0 mph1.6 kmh 30.12 in1020.0 mb 0.00 in0.0 mm 0.00 in0.0 mm 0.01 in0.3 mm
02:30 AM 52.6°F11.4°C 50.0°F10.0°C 91% 1.0 mph NW1.6 kmh NW 1.0 mph1.6 kmh 30.12 in1020.0 mb 0.00 in0.0 mm 0.00 in0.0 mm 0.01 in0.3 mm
02:20 AM 52.7°F11.5°C 49.8°F9.9°C 90% 1.0 mph NW1.6 kmh NW 2.0 mph3.2 kmh 30.12 in1020.0 mb 0.00 in0.0 mm 0.00 in0.0 mm 0.01 in0.3 mm
02:10 AM 52.6°F11.4°C 50.1°F10.1°C 91% 1.0 mph NW1.6 kmh NW 2.0 mph3.2 kmh 30.12 in1020.0 mb 0.00 in0.0 mm 0.00 in0.0 mm 0.01 in0.3 mm
02:00 AM 52.5°F11.4°C 49.9°F9.9°C 91% 3.0 mph NW4.8 kmh NW 5.0 mph8.0 kmh 30.12 in1020.0 mb 0.00 in0.0 mm 0.00 in0.0 mm 0.01 in0.3 mm
01:50 AM 52.5°F11.4°C 49.9°F9.9°C 91% 2.0 mph NW3.2 kmh NW 3.0 mph4.8 kmh 30.12 in1020.0 mb 0.00 in0.0 mm 0.00 in0.0 mm 0.01 in0.3 mm
01:40 AM 52.4°F11.3°C 49.9°F9.9°C 91% 3.0 mph NW4.8 kmh NW 3.0 mph4.8 kmh 30.13 in1020.3 mb 0.00 in0.0 mm 0.00 in0.0 mm 0.01 in0.3 mm
01:30 AM 52.3°F11.3°C 50.1°F10.1°C 92% 3.0 mph NW4.8 kmh NW 5.0 mph8.0 kmh 30.13 in1020.3 mb 0.00 in0.0 mm 0.00 in0.0 mm 0.01 in0.3 mm
01:20 AM 52.4°F11.3°C 49.8°F9.9°C 91% 1.0 mph NW1.6 kmh NW 2.0 mph3.2 kmh 30.13 in1020.3 mb 0.00 in0.0 mm 0.00 in0.0 mm 0.01 in0.3 mm
01:10 AM 52.5°F11.4°C 50.0°F10.0°C 91% 1.0 mph NW1.6 kmh NW 2.0 mph3.2 kmh 30.13 in1020.3 mb 0.00 in0.0 mm 0.00 in0.0 mm 0.01 in0.3 mm
01:00 AM 52.8°F11.6°C 50.0°F10.0°C 90% 1.0 mph NW1.6 kmh NW 3.0 mph4.8 kmh 30.13 in1020.3 mb 0.00 in0.0 mm 0.00 in0.0 mm 0.01 in0.3 mm
12:50 AM 53.1°F11.7°C 49.9°F9.9°C 89% 1.0 mph NW1.6 kmh NW 3.0 mph4.8 kmh 30.13 in1020.3 mb 0.00 in0.0 mm 0.00 in0.0 mm 0.01 in0.3 mm
12:40 AM 53.4°F11.9°C 49.9°F9.9°C 88% 2.0 mph NW3.2 kmh NW 3.0 mph4.8 kmh 30.13 in1020.3 mb 0.00 in0.0 mm 0.00 in0.0 mm 0.01 in0.3 mm
12:30 AM 53.5°F11.9°C 50.0°F10.0°C 88% 1.0 mph NW1.6 kmh NW 2.0 mph3.2 kmh 30.13 in1020.3 mb 0.00 in0.0 mm 0.00 in0.0 mm 0.01 in0.3 mm
12:20 AM 53.3°F11.8°C 50.1°F10.1°C 89% 3.0 mph NW4.8 kmh NW 5.0 mph8.0 kmh 30.13 in1020.3 mb 0.00 in0.0 mm 0.00 in0.0 mm 0.01 in0.3 mm
12:00 AM 47.7°F8.7°C 46.9°F8.3°C 97% 0.5 mph W0.8 kmh W 1.0 mph1.6 kmh 30.09 in1019.0 mb - 0.00 in0.0 mm 0.00 in0.0 mm